Aviation Digital Data Service (ADDS)

Output produced by METARs form (1437 UTC 21 May 2019)
found at http://www.aviationweather.gov/metar/data/
 
Forecast for: AMD
Text: TAF AMD RODN 211000Z 2110/2214 04009KT 9999 SCT040 QNH2978INS
Forecast period: 1000 UTC 21 May 2019 to 0900 UTC 22 May 2019
Forecast type: FROM: standard forecast or significant change
Winds: from the NE (40 degrees) at 10 MPH (9 knots; 4.6 m/s)
Visibility: 6 or more miles 10+ km)
Ceiling: at least 12,000 feet AGL
Clouds: scattered clouds at 4000 feet AGL
Weather: no significant weather forecast for this period
Text: BECMG 2209/2210 05009KT 9999 SCT040 QNH2980INS TX27/2204Z TN21/2121Z
Forecast period: 0900 to 1400 UTC 22 May 2019
Forecast type: BECOMING: Conditions expected to become as follows by 1000 UTC 22 May 2019
Winds: from the NE (50 degrees) at 10 MPH (9 knots; 4.6 m/s)
Visibility: 6 or more miles 10+ km)
Ceiling: at least 12,000 feet AGL
Clouds: scattered clouds at 4000 feet AGL
Weather: no significant weather forecast for this period